sensor_id;sensor_type;location;lat;lon;timestamp;pressure;altitude;pressure_sealevel;temperature;humidity
39209;BME280;24929;51.982;4.664;2023-02-19T00:01:16;77113.69;;;-143.36;nan
39209;BME280;24929;51.982;4.664;2023-02-19T00:03:42;77125.72;;;-143.36;nan
39209;BME280;24929;51.982;4.664;2023-02-19T00:06:09;77105.66;;;-143.36;nan
39209;BME280;24929;51.982;4.664;2023-02-19T00:08:37;77145.81;;;-143.36;nan
39209;BME280;24929;51.982;4.664;2023-02-19T00:11:05;77177.91;;;-143.36;nan
39209;BME280;24929;51.982;4.664;2023-02-19T00:13:34;77161.84;;;-143.36;nan
39209;BME280;24929;51.982;4.664;2023-02-19T00:16:07;77163.88;;;-143.36;nan
39209;BME280;24929;51.982;4.664;2023-02-19T00:18:34;77202.00;;;-143.36;nan
39209;BME280;24929;51.982;4.664;2023-02-19T00:21:00;77220.06;;;-143.36;nan
39209;BME280;24929;51.982;4.664;2023-02-19T00:23:25;77234.13;;;-143.36;nan
39209;BME280;24929;51.982;4.664;2023-02-19T00:25:52;77224.06;;;-143.36;nan
39209;BME280;24929;51.982;4.664;2023-02-19T00:28:17;77234.13;;;-143.36;nan
39209;BME280;24929;51.982;4.664;2023-02-19T00:30:43;77218.06;;;-143.36;nan
39209;BME280;24929;51.982;4.664;2023-02-19T00:33:08;77224.06;;;-143.36;nan
39209;BME280;24929;51.982;4.664;2023-02-19T00:35:34;77212.03;;;-143.36;nan
39209;BME280;24929;51.982;4.664;2023-02-19T00:38:00;77193.97;;;-143.36;nan
39209;BME280;24929;51.982;4.664;2023-02-19T00:40:25;77234.13;;;-143.36;nan
39209;BME280;24929;51.982;4.664;2023-02-19T00:42:51;77230.09;;;-143.36;nan
39209;BME280;24929;51.982;4.664;2023-02-19T00:45:16;77234.13;;;-143.36;nan
39209;BME280;24929;51.982;4.664;2023-02-19T00:47:42;77220.06;;;-143.36;nan
39209;BME280;24929;51.982;4.664;2023-02-19T00:50:07;77202.00;;;-143.36;nan
39209;BME280;24929;51.982;4.664;2023-02-19T00:52:33;77198.00;;;-143.36;nan
39209;BME280;24929;51.982;4.664;2023-02-19T00:54:58;77238.13;;;-143.36;nan
39209;BME280;24929;51.982;4.664;2023-02-19T00:57:24;77187.94;;;-143.36;nan
39209;BME280;24929;51.982;4.664;2023-02-19T00:59:49;77179.94;;;-143.36;nan
39209;BME280;24929;51.982;4.664;2023-02-19T01:02:14;77179.94;;;-143.36;nan
39209;BME280;24929;51.982;4.664;2023-02-19T01:04:40;77210.03;;;-143.36;nan
39209;BME280;24929;51.982;4.664;2023-02-19T01:07:05;77163.88;;;-143.36;nan
39209;BME280;24929;51.982;4.664;2023-02-19T01:09:30;77169.88;;;-143.36;nan
39209;BME280;24929;51.982;4.664;2023-02-19T01:11:56;77155.84;;;-143.36;nan
39209;BME280;24929;51.982;4.664;2023-02-19T01:14:21;77129.75;;;-143.36;nan
39209;BME280;24929;51.982;4.664;2023-02-19T01:16:46;77149.81;;;-143.36;nan
39209;BME280;24929;51.982;4.664;2023-02-19T01:19:11;77167.88;;;-143.36;nan
39209;BME280;24929;51.982;4.664;2023-02-19T01:21:39;77113.69;;;-143.36;nan
39209;BME280;24929;51.982;4.664;2023-02-19T01:24:04;77151.81;;;-143.36;nan
39209;BME280;24929;51.982;4.664;2023-02-19T01:26:31;77113.69;;;-143.36;nan
39209;BME280;24929;51.982;4.664;2023-02-19T01:28:58;77093.63;;;-143.36;nan
39209;BME280;24929;51.982;4.664;2023-02-19T01:31:25;77125.72;;;-143.36;nan
39209;BME280;24929;51.982;4.664;2023-02-19T01:33:55;77101.66;;;-143.36;nan
39209;BME280;24929;51.982;4.664;2023-02-19T01:36:22;77117.72;;;-143.36;nan
39209;BME280;24929;51.982;4.664;2023-02-19T01:38:48;77141.78;;;-143.36;nan
39209;BME280;24929;51.982;4.664;2023-02-19T01:41:22;77103.66;;;-143.36;nan
39209;BME280;24929;51.982;4.664;2023-02-19T01:44:03;77081.59;;;-143.36;nan
39209;BME280;24929;51.982;4.664;2023-02-19T01:46:34;77093.63;;;-143.36;nan
39209;BME280;24929;51.982;4.664;2023-02-19T01:49:07;77069.53;;;-143.36;nan
39209;BME280;24929;51.982;4.664;2023-02-19T01:51:37;77087.59;;;-143.36;nan
39209;BME280;24929;51.982;4.664;2023-02-19T01:54:04;77097.63;;;-143.36;nan
39209;BME280;24929;51.982;4.664;2023-02-19T01:56:33;77129.75;;;-143.36;nan
39209;BME280;24929;51.982;4.664;2023-02-19T01:59:00;77135.78;;;-143.36;nan
39209;BME280;24929;51.982;4.664;2023-02-19T02:01:26;77143.78;;;-143.36;nan
39209;BME280;24929;51.982;4.664;2023-02-19T02:03:52;77133.75;;;-143.36;nan
39209;BME280;24929;51.982;4.664;2023-02-19T02:06:46;77079.56;;;-143.36;nan
39209;BME280;24929;51.982;4.664;2023-02-19T02:09:08;77139.78;;;-143.36;nan
39209;BME280;24929;51.982;4.664;2023-02-19T02:11:52;77121.72;;;-143.36;nan
39209;BME280;24929;51.982;4.664;2023-02-19T02:14:21;77099.66;;;-143.36;nan
39209;BME280;24929;51.982;4.664;2023-02-19T02:16:53;77137.78;;;-143.36;nan
39209;BME280;24929;51.982;4.664;2023-02-19T02:22:05;77117.72;;;-143.36;nan
39209;BME280;24929;51.982;4.664;2023-02-19T02:32:55;77073.56;;;-143.36;nan
39209;BME280;24929;51.982;4.664;2023-02-19T02:35:26;77053.47;;;-143.36;nan
39209;BME280;24929;51.982;4.664;2023-02-19T02:37:56;77097.63;;;-143.36;nan
39209;BME280;24929;51.982;4.664;2023-02-19T02:40:22;77175.91;;;-143.36;nan
39209;BME280;24929;51.982;4.664;2023-02-19T02:42:48;77193.97;;;-143.36;nan
39209;BME280;24929;51.982;4.664;2023-02-19T02:48:30;77159.84;;;-143.36;nan
39209;BME280;24929;51.982;4.664;2023-02-19T02:56:47;77171.91;;;-143.36;nan
39209;BME280;24929;51.982;4.664;2023-02-19T02:59:18;77179.94;;;-143.36;nan
39209;BME280;24929;51.982;4.664;2023-02-19T03:01:47;77121.72;;;-143.36;nan
39209;BME280;24929;51.982;4.664;2023-02-19T03:07:25;77189.97;;;-143.36;nan
39209;BME280;24929;51.982;4.664;2023-02-19T03:09:53;77200.00;;;-143.36;nan
39209;BME280;24929;51.982;4.664;2023-02-19T03:12:21;77187.94;;;-143.36;nan
39209;BME280;24929;51.982;4.664;2023-02-19T03:15:08;77206.00;;;-143.36;nan
39209;BME280;24929;51.982;4.664;2023-02-19T03:17:58;77218.06;;;-143.36;nan
39209;BME280;24929;51.982;4.664;2023-02-19T03:20:46;77218.06;;;-143.36;nan
39209;BME280;24929;51.982;4.664;2023-02-19T03:23:13;77206.00;;;-143.36;nan
39209;BME280;24929;51.982;4.664;2023-02-19T03:25:40;77198.00;;;-143.36;nan
39209;BME280;24929;51.982;4.664;2023-02-19T03:28:27;77236.13;;;-143.36;nan
39209;BME280;24929;51.982;4.664;2023-02-19T03:31:17;77272.25;;;-143.36;nan
39209;BME280;24929;51.982;4.664;2023-02-19T03:33:46;77270.25;;;-143.36;nan
39209;BME280;24929;51.982;4.664;2023-02-19T03:36:14;77276.25;;;-143.36;nan
39209;BME280;24929;51.982;4.664;2023-02-19T03:38:45;77260.22;;;-143.36;nan
39209;BME280;24929;51.982;4.664;2023-02-19T03:41:24;77256.19;;;-143.36;nan
39209;BME280;24929;51.982;4.664;2023-02-19T03:47:24;77191.97;;;-143.36;nan
39209;BME280;24929;51.982;4.664;2023-02-19T03:50:20;77193.97;;;-143.36;nan
39209;BME280;24929;51.982;4.664;2023-02-19T03:53:03;77294.31;;;-143.36;nan
39209;BME280;24929;51.982;4.664;2023-02-19T03:56:05;77216.06;;;-143.36;nan
39209;BME280;24929;51.982;4.664;2023-02-19T03:58:55;77202.00;;;-143.36;nan
39209;BME280;24929;51.982;4.664;2023-02-19T04:01:31;77240.13;;;-143.36;nan
39209;BME280;24929;51.982;4.664;2023-02-19T04:04:08;77206.00;;;-143.36;nan
39209;BME280;24929;51.982;4.664;2023-02-19T04:06:37;77312.38;;;-143.36;nan
39209;BME280;24929;51.982;4.664;2023-02-19T04:09:07;77246.16;;;-143.36;nan
39209;BME280;24929;51.982;4.664;2023-02-19T04:11:37;77260.22;;;-143.36;nan
39209;BME280;24929;51.982;4.664;2023-02-19T04:14:08;77294.31;;;-143.36;nan
39209;BME280;24929;51.982;4.664;2023-02-19T04:16:37;77272.25;;;-143.36;nan
39209;BME280;24929;51.982;4.664;2023-02-19T04:19:09;77294.31;;;-143.36;nan
39209;BME280;24929;51.982;4.664;2023-02-19T04:21:37;77324.44;;;-143.36;nan
39209;BME280;24929;51.982;4.664;2023-02-19T04:24:08;77306.38;;;-143.36;nan
39209;BME280;24929;51.982;4.664;2023-02-19T04:26:35;77322.44;;;-143.36;nan
39209;BME280;24929;51.982;4.664;2023-02-19T04:29:01;77410.75;;;-143.36;nan
39209;BME280;24929;51.982;4.664;2023-02-19T04:31:28;77342.50;;;-143.36;nan
39209;BME280;24929;51.982;4.664;2023-02-19T04:33:55;77364.56;;;-143.36;nan
39209;BME280;24929;51.982;4.664;2023-02-19T04:36:22;77316.41;;;-143.36;nan
39209;BME280;24929;51.982;4.664;2023-02-19T04:38:47;77370.59;;;-143.36;nan
39209;BME280;24929;51.982;4.664;2023-02-19T04:41:12;77386.66;;;-143.36;nan
39209;BME280;24929;51.982;4.664;2023-02-19T04:43:38;77404.72;;;-143.36;nan
39209;BME280;24929;51.982;4.664;2023-02-19T04:46:03;77394.69;;;-143.36;nan
39209;BME280;24929;51.982;4.664;2023-02-19T04:48:28;77408.72;;;-143.36;nan
39209;BME280;24929;51.982;4.664;2023-02-19T04:50:54;77438.84;;;-143.36;nan
39209;BME280;24929;51.982;4.664;2023-02-19T04:53:19;77444.88;;;-143.36;nan
39209;BME280;24929;51.982;4.664;2023-02-19T04:55:45;77460.91;;;-143.36;nan
39209;BME280;24929;51.982;4.664;2023-02-19T04:58:17;77424.78;;;-143.36;nan
39209;BME280;24929;51.982;4.664;2023-02-19T05:00:42;77402.72;;;-143.36;nan
39209;BME280;24929;51.982;4.664;2023-02-19T05:03:07;77400.72;;;-143.36;nan
39209;BME280;24929;51.982;4.664;2023-02-19T05:05:33;77374.63;;;-143.36;nan
39209;BME280;24929;51.982;4.664;2023-02-19T05:07:59;77396.69;;;-143.36;nan
39209;BME280;24929;51.982;4.664;2023-02-19T05:10:24;77444.88;;;-143.36;nan
39209;BME280;24929;51.982;4.664;2023-02-19T05:12:49;77464.94;;;-143.36;nan
39209;BME280;24929;51.982;4.664;2023-02-19T05:15:16;77454.91;;;-143.36;nan
39209;BME280;24929;51.982;4.664;2023-02-19T05:17:41;77511.09;;;-143.36;nan
39209;BME280;24929;51.982;4.664;2023-02-19T05:20:07;77462.94;;;-143.36;nan
39209;BME280;24929;51.982;4.664;2023-02-19T05:22:32;77525.16;;;-143.36;nan
39209;BME280;24929;51.982;4.664;2023-02-19T05:24:58;77491.03;;;-143.36;nan
39209;BME280;24929;51.982;4.664;2023-02-19T05:27:23;77527.16;;;-143.36;nan
39209;BME280;24929;51.982;4.664;2023-02-19T05:29:48;77509.09;;;-143.36;nan
39209;BME280;24929;51.982;4.664;2023-02-19T05:32:14;77531.16;;;-143.36;nan
39209;BME280;24929;51.982;4.664;2023-02-19T05:34:39;77549.25;;;-143.36;nan
39209;BME280;24929;51.982;4.664;2023-02-19T05:37:04;77509.09;;;-143.36;nan
39209;BME280;24929;51.982;4.664;2023-02-19T05:39:30;77521.13;;;-143.36;nan
39209;BME280;24929;51.982;4.664;2023-02-19T05:41:55;77489.03;;;-143.36;nan
39209;BME280;24929;51.982;4.664;2023-02-19T05:44:20;77442.84;;;-143.36;nan
39209;BME280;24929;51.982;4.664;2023-02-19T05:46:46;77537.19;;;-143.36;nan
39209;BME280;24929;51.982;4.664;2023-02-19T05:49:11;77458.91;;;-143.36;nan
39209;BME280;24929;51.982;4.664;2023-02-19T05:51:37;77476.97;;;-143.36;nan
39209;BME280;24929;51.982;4.664;2023-02-19T05:54:02;77495.03;;;-143.36;nan
39209;BME280;24929;51.982;4.664;2023-02-19T05:56:38;77394.69;;;-143.36;nan
39209;BME280;24929;51.982;4.664;2023-02-19T05:59:15;77436.84;;;-143.36;nan
39209;BME280;24929;51.982;4.664;2023-02-19T06:01:41;77462.94;;;-143.36;nan
39209;BME280;24929;51.982;4.664;2023-02-19T06:04:08;77446.88;;;-143.36;nan
39209;BME280;24929;51.982;4.664;2023-02-19T06:06:33;77499.06;;;-143.36;nan
39209;BME280;24929;51.982;4.664;2023-02-19T06:08:58;77491.03;;;-143.36;nan
39209;BME280;24929;51.982;4.664;2023-02-19T06:11:24;77563.28;;;-143.36;nan
39209;BME280;24929;51.982;4.664;2023-02-19T06:13:49;77483.00;;;-143.36;nan
39209;BME280;24929;51.982;4.664;2023-02-19T06:16:17;77460.91;;;-143.36;nan
39209;BME280;24929;51.982;4.664;2023-02-19T06:18:44;77491.03;;;-143.36;nan
39209;BME280;24929;51.982;4.664;2023-02-19T06:21:10;77446.88;;;-143.36;nan
39209;BME280;24929;51.982;4.664;2023-02-19T06:23:36;77446.88;;;-143.36;nan
39209;BME280;24929;51.982;4.664;2023-02-19T06:26:12;77464.94;;;-143.36;nan
39209;BME280;24929;51.982;4.664;2023-02-19T06:28:39;77464.94;;;-143.36;nan
39209;BME280;24929;51.982;4.664;2023-02-19T06:31:05;77517.13;;;-143.36;nan
39209;BME280;24929;51.982;4.664;2023-02-19T06:33:32;77497.06;;;-143.36;nan
39209;BME280;24929;51.982;4.664;2023-02-19T06:36:00;77456.91;;;-143.36;nan
39209;BME280;24929;51.982;4.664;2023-02-19T06:38:26;77464.94;;;-143.36;nan
39209;BME280;24929;51.982;4.664;2023-02-19T06:40:51;77507.09;;;-143.36;nan
39209;BME280;24929;51.982;4.664;2023-02-19T06:43:16;77537.19;;;-143.36;nan
39209;BME280;24929;51.982;4.664;2023-02-19T06:45:42;77517.13;;;-143.36;nan
39209;BME280;24929;51.982;4.664;2023-02-19T06:48:07;77513.09;;;-143.36;nan
39209;BME280;24929;51.982;4.664;2023-02-19T06:50:32;77507.09;;;-143.36;nan
39209;BME280;24929;51.982;4.664;2023-02-19T06:52:58;77557.25;;;-143.36;nan
39209;BME280;24929;51.982;4.664;2023-02-19T06:55:23;77525.16;;;-143.36;nan
39209;BME280;24929;51.982;4.664;2023-02-19T06:57:49;77487.00;;;-143.36;nan
39209;BME280;24929;51.982;4.664;2023-02-19T07:00:14;77553.25;;;-143.36;nan
39209;BME280;24929;51.982;4.664;2023-02-19T07:02:40;77551.25;;;-143.36;nan
39209;BME280;24929;51.982;4.664;2023-02-19T07:05:05;77517.13;;;-143.36;nan
39209;BME280;24929;51.982;4.664;2023-02-19T07:07:30;77565.28;;;-143.36;nan
39209;BME280;24929;51.982;4.664;2023-02-19T07:09:56;77633.53;;;-143.36;nan
39209;BME280;24929;51.982;4.664;2023-02-19T07:12:21;77569.31;;;-143.36;nan
39209;BME280;24929;51.982;4.664;2023-02-19T07:14:46;77527.16;;;-143.36;nan
39209;BME280;24929;51.982;4.664;2023-02-19T07:17:12;77551.25;;;-143.36;nan
39209;BME280;24929;51.982;4.664;2023-02-19T07:19:37;77593.41;;;-143.36;nan
39209;BME280;24929;51.982;4.664;2023-02-19T07:22:03;77615.47;;;-143.36;nan
39209;BME280;24929;51.982;4.664;2023-02-19T07:24:28;77647.59;;;-143.36;nan
39209;BME280;24929;51.982;4.664;2023-02-19T07:26:53;77593.41;;;-143.36;nan
39209;BME280;24929;51.982;4.664;2023-02-19T07:29:19;77655.63;;;-143.36;nan
39209;BME280;24929;51.982;4.664;2023-02-19T07:31:44;77643.56;;;-143.36;nan
39209;BME280;24929;51.982;4.664;2023-02-19T07:34:09;77681.72;;;-143.36;nan
39209;BME280;24929;51.982;4.664;2023-02-19T07:36:35;77671.69;;;-143.36;nan
39209;BME280;24929;51.982;4.664;2023-02-19T07:39:00;77635.56;;;-143.36;nan
39209;BME280;24929;51.982;4.664;2023-02-19T07:41:26;77601.44;;;-143.36;nan
39209;BME280;24929;51.982;4.664;2023-02-19T07:43:52;77641.56;;;-143.36;nan
39209;BME280;24929;51.982;4.664;2023-02-19T07:46:18;77637.56;;;-143.36;nan
39209;BME280;24929;51.982;4.664;2023-02-19T07:48:44;77639.56;;;-143.36;nan
39209;BME280;24929;51.982;4.664;2023-02-19T07:51:15;77637.56;;;-143.36;nan
39209;BME280;24929;51.982;4.664;2023-02-19T07:53:43;77643.56;;;-143.36;nan
39209;BME280;24929;51.982;4.664;2023-02-19T07:56:10;77623.50;;;-143.36;nan
39209;BME280;24929;51.982;4.664;2023-02-19T07:58:37;77699.78;;;-143.36;nan
39209;BME280;24929;51.982;4.664;2023-02-19T08:01:22;77591.38;;;-143.36;nan
39209;BME280;24929;51.982;4.664;2023-02-19T08:04:07;77621.50;;;-143.36;nan
39209;BME280;24929;51.982;4.664;2023-02-19T08:06:32;77631.53;;;-143.36;nan
39209;BME280;24929;51.982;4.664;2023-02-19T08:08:57;77655.63;;;-143.36;nan
39209;BME280;24929;51.982;4.664;2023-02-19T08:11:23;77655.63;;;-143.36;nan
39209;BME280;24929;51.982;4.664;2023-02-19T08:20:03;77647.59;;;-143.36;nan
39209;BME280;24929;51.982;4.664;2023-02-19T08:22:28;77681.72;;;-143.36;nan
39209;BME280;24929;51.982;4.664;2023-02-19T08:24:53;77657.63;;;-143.36;nan
39209;BME280;24929;51.982;4.664;2023-02-19T08:27:19;77667.66;;;-143.36;nan
39209;BME280;24929;51.982;4.664;2023-02-19T08:29:44;77649.59;;;-143.36;nan
39209;BME280;24929;51.982;4.664;2023-02-19T08:32:09;77691.75;;;-143.36;nan
39209;BME280;24929;51.982;4.664;2023-02-19T08:34:35;77687.75;;;-143.36;nan
39209;BME280;24929;51.982;4.664;2023-02-19T08:37:01;77667.66;;;-143.36;nan
39209;BME280;24929;51.982;4.664;2023-02-19T08:52:41;77669.69;;;-143.36;nan
39209;BME280;24929;51.982;4.664;2023-02-19T08:55:07;77641.56;;;-143.36;nan
39209;BME280;24929;51.982;4.664;2023-02-19T08:57:37;77599.41;;;-143.36;nan
39209;BME280;24929;51.982;4.664;2023-02-19T09:00:06;77597.41;;;-143.36;nan
39209;BME280;24929;51.982;4.664;2023-02-19T09:02:34;77621.50;;;-143.36;nan
39209;BME280;24929;51.982;4.664;2023-02-19T09:05:00;77723.88;;;-143.36;nan
39209;BME280;24929;51.982;4.664;2023-02-19T09:07:26;77635.56;;;-143.36;nan
39209;BME280;24929;51.982;4.664;2023-02-19T09:09:53;77643.56;;;-143.36;nan
39209;BME280;24929;51.982;4.664;2023-02-19T09:12:20;77657.63;;;-143.36;nan
39209;BME280;24929;51.982;4.664;2023-02-19T09:14:46;77603.44;;;-143.36;nan
39209;BME280;24929;51.982;4.664;2023-02-19T09:17:12;77593.41;;;-143.36;nan
39209;BME280;24929;51.982;4.664;2023-02-19T09:19:38;77625.50;;;-143.36;nan
39209;BME280;24929;51.982;4.664;2023-02-19T09:22:04;77635.56;;;-143.36;nan
39209;BME280;24929;51.982;4.664;2023-02-19T09:24:30;77585.38;;;-143.36;nan
39209;BME280;24929;51.982;4.664;2023-02-19T09:26:56;77567.31;;;-143.36;nan
39209;BME280;24929;51.982;4.664;2023-02-19T09:29:27;77509.09;;;-143.36;nan
39209;BME280;24929;51.982;4.664;2023-02-19T09:31:58;77561.28;;;-143.36;nan
39209;BME280;24929;51.982;4.664;2023-02-19T09:34:25;77585.38;;;-143.36;nan
39209;BME280;24929;51.982;4.664;2023-02-19T09:36:51;77705.81;;;-143.36;nan
39209;BME280;24929;51.982;4.664;2023-02-19T09:39:17;77671.69;;;-143.36;nan
39209;BME280;24929;51.982;4.664;2023-02-19T10:05:24;77699.78;;;-143.36;nan
39209;BME280;24929;51.982;4.664;2023-02-19T10:07:52;77689.75;;;-143.36;nan
39209;BME280;24929;51.982;4.664;2023-02-19T10:10:29;77699.78;;;-143.36;nan
39209;BME280;24929;51.982;4.664;2023-02-19T10:13:04;77679.72;;;-143.36;nan
39209;BME280;24929;51.982;4.664;2023-02-19T10:26:07;77764.00;;;-143.36;nan
39209;BME280;24929;51.982;4.664;2023-02-19T10:28:33;77753.97;;;-143.36;nan
39209;BME280;24929;51.982;4.664;2023-02-19T10:31:10;77727.88;;;-143.36;nan
39209;BME280;24929;51.982;4.664;2023-02-19T10:33:53;77649.59;;;-143.36;nan
39209;BME280;24929;51.982;4.664;2023-02-19T10:36:26;77659.63;;;-143.36;nan
39209;BME280;24929;51.982;4.664;2023-02-19T10:38:53;77747.97;;;-143.36;nan
39209;BME280;24929;51.982;4.664;2023-02-19T10:41:21;77707.81;;;-143.36;nan
39209;BME280;24929;51.982;4.664;2023-02-19T10:43:53;77731.91;;;-143.36;nan
39209;BME280;24929;51.982;4.664;2023-02-19T10:48:52;77731.91;;;-143.36;nan
39209;BME280;24929;51.982;4.664;2023-02-19T10:51:19;77745.94;;;-143.36;nan
39209;BME280;24929;51.982;4.664;2023-02-19T10:54:01;77717.84;;;-143.36;nan
39209;BME280;24929;51.982;4.664;2023-02-19T10:56:28;77756.00;;;-143.36;nan
39209;BME280;24929;51.982;4.664;2023-02-19T10:59:25;77737.91;;;-143.36;nan
39209;BME280;24929;51.982;4.664;2023-02-19T11:02:02;77768.03;;;-143.36;nan
39209;BME280;24929;51.982;4.664;2023-02-19T11:04:40;77731.91;;;-143.36;nan
39209;BME280;24929;51.982;4.664;2023-02-19T11:07:17;77647.59;;;-143.36;nan
39209;BME280;24929;51.982;4.664;2023-02-19T11:09:44;77641.56;;;-143.36;nan
39209;BME280;24929;51.982;4.664;2023-02-19T11:12:12;77655.63;;;-143.36;nan
39209;BME280;24929;51.982;4.664;2023-02-19T11:14:41;77675.69;;;-143.36;nan
39209;BME280;24929;51.982;4.664;2023-02-19T11:24:00;77627.53;;;-143.36;nan
39209;BME280;24929;51.982;4.664;2023-02-19T11:26:31;77549.25;;;-143.36;nan
39209;BME280;24929;51.982;4.664;2023-02-19T11:29:01;77593.41;;;-143.36;nan
39209;BME280;24929;51.982;4.664;2023-02-19T11:31:36;77523.16;;;-143.36;nan
39209;BME280;24929;51.982;4.664;2023-02-19T11:34:25;77483.00;;;-143.36;nan
39209;BME280;24929;51.982;4.664;2023-02-19T11:37:17;77468.94;;;-143.36;nan
39209;BME280;24929;51.982;4.664;2023-02-19T11:39:46;77535.19;;;-143.36;nan
39209;BME280;24929;51.982;4.664;2023-02-19T11:42:39;77513.09;;;-143.36;nan
39209;BME280;24929;51.982;4.664;2023-02-19T11:48:29;77607.44;;;-143.36;nan
39209;BME280;24929;51.982;4.664;2023-02-19T11:51:09;77539.19;;;-143.36;nan
39209;BME280;24929;51.982;4.664;2023-02-19T11:53:46;77565.28;;;-143.36;nan
39209;BME280;24929;51.982;4.664;2023-02-19T11:56:20;77599.41;;;-143.36;nan
39209;BME280;24929;51.982;4.664;2023-02-19T11:58:58;77545.22;;;-143.36;nan
39209;BME280;24929;51.982;4.664;2023-02-19T12:45:46;77478.97;;;-143.36;nan
39209;BME280;24929;51.982;4.664;2023-02-19T12:50:55;77529.16;;;-143.36;nan
39209;BME280;24929;51.982;4.664;2023-02-19T12:53:37;77641.56;;;-143.36;nan
39209;BME280;24929;51.982;4.664;2023-02-19T12:56:09;77605.44;;;-143.36;nan
39209;BME280;24929;51.982;4.664;2023-02-19T12:58:44;77713.84;;;-143.36;nan
39209;BME280;24929;51.982;4.664;2023-02-19T13:01:17;77669.69;;;-143.36;nan
39209;BME280;24929;51.982;4.664;2023-02-19T13:03:48;77629.53;;;-143.36;nan
39209;BME280;24929;51.982;4.664;2023-02-19T13:09:05;77663.66;;;-143.36;nan
39209;BME280;24929;51.982;4.664;2023-02-19T13:11:44;77641.56;;;-143.36;nan
39209;BME280;24929;51.982;4.664;2023-02-19T13:14:18;77619.50;;;-143.36;nan
39209;BME280;24929;51.982;4.664;2023-02-19T13:16:50;77649.59;;;-143.36;nan
39209;BME280;24929;51.982;4.664;2023-02-19T13:19:16;77735.91;;;-143.36;nan
39209;BME280;24929;51.982;4.664;2023-02-19T13:21:43;77753.97;;;-143.36;nan
39209;BME280;24929;51.982;4.664;2023-02-19T13:24:33;77768.03;;;-143.36;nan
39209;BME280;24929;51.982;4.664;2023-02-19T13:27:15;77784.09;;;-143.36;nan
39209;BME280;24929;51.982;4.664;2023-02-19T13:35:35;77741.94;;;-143.36;nan
39209;BME280;24929;51.982;4.664;2023-02-19T14:19:59;77745.94;;;-143.36;nan
39209;BME280;24929;51.982;4.664;2023-02-19T14:22:59;77679.72;;;-143.36;nan
39209;BME280;24929;51.982;4.664;2023-02-19T14:28:13;77737.91;;;-143.36;nan
39209;BME280;24929;51.982;4.664;2023-02-19T14:33:15;77737.91;;;-143.36;nan
39209;BME280;24929;51.982;4.664;2023-02-19T14:35:47;77760.00;;;-143.36;nan
39209;BME280;24929;51.982;4.664;2023-02-19T14:38:27;77709.81;;;-143.36;nan
39209;BME280;24929;51.982;4.664;2023-02-19T14:40:56;77743.94;;;-143.36;nan
39209;BME280;24929;51.982;4.664;2023-02-19T14:43:24;77796.13;;;-143.36;nan
39209;BME280;24929;51.982;4.664;2023-02-19T14:45:55;77790.13;;;-143.36;nan
39209;BME280;24929;51.982;4.664;2023-02-19T14:48:28;77784.09;;;-143.36;nan
39209;BME280;24929;51.982;4.664;2023-02-19T14:51:01;77862.38;;;-143.36;nan
39209;BME280;24929;51.982;4.664;2023-02-19T14:53:29;77824.25;;;-143.36;nan
39209;BME280;24929;51.982;4.664;2023-02-19T14:55:58;77766.03;;;-143.36;nan
39209;BME280;24929;51.982;4.664;2023-02-19T14:58:29;77794.13;;;-143.36;nan
39209;BME280;24929;51.982;4.664;2023-02-19T15:00:56;77719.84;;;-143.36;nan
39209;BME280;24929;51.982;4.664;2023-02-19T15:03:36;77745.94;;;-143.36;nan
39209;BME280;24929;51.982;4.664;2023-02-19T15:06:11;77808.19;;;-143.36;nan
39209;BME280;24929;51.982;4.664;2023-02-19T15:08:46;77772.03;;;-143.36;nan
39209;BME280;24929;51.982;4.664;2023-02-19T15:11:19;77806.16;;;-143.36;nan
39209;BME280;24929;51.982;4.664;2023-02-19T15:14:01;77794.13;;;-143.36;nan
39209;BME280;24929;51.982;4.664;2023-02-19T15:16:31;77768.03;;;-143.36;nan
39209;BME280;24929;51.982;4.664;2023-02-19T15:18:58;77802.16;;;-143.36;nan
39209;BME280;24929;51.982;4.664;2023-02-19T15:21:27;77828.25;;;-143.36;nan
39209;BME280;24929;51.982;4.664;2023-02-19T15:23:59;77882.44;;;-143.36;nan
39209;BME280;24929;51.982;4.664;2023-02-19T15:26:38;77790.13;;;-143.36;nan
39209;BME280;24929;51.982;4.664;2023-02-19T15:29:13;77760.00;;;-143.36;nan
39209;BME280;24929;51.982;4.664;2023-02-19T15:31:57;77760.00;;;-143.36;nan
39209;BME280;24929;51.982;4.664;2023-02-19T15:34:28;77792.13;;;-143.36;nan
39209;BME280;24929;51.982;4.664;2023-02-19T15:36:58;77794.13;;;-143.36;nan
39209;BME280;24929;51.982;4.664;2023-02-19T15:39:29;77812.19;;;-143.36;nan
39209;BME280;24929;51.982;4.664;2023-02-19T15:41:59;77832.25;;;-143.36;nan
39209;BME280;24929;51.982;4.664;2023-02-19T15:47:06;77828.25;;;-143.36;nan
39209;BME280;24929;51.982;4.664;2023-02-19T15:52:29;77860.38;;;-143.36;nan
39209;BME280;24929;51.982;4.664;2023-02-19T15:55:03;77860.38;;;-143.36;nan
39209;BME280;24929;51.982;4.664;2023-02-19T15:57:41;77862.38;;;-143.36;nan
39209;BME280;24929;51.982;4.664;2023-02-19T16:00:28;77806.16;;;-143.36;nan
39209;BME280;24929;51.982;4.664;2023-02-19T16:02:56;77878.44;;;-143.36;nan
39209;BME280;24929;51.982;4.664;2023-02-19T16:05:26;77916.56;;;-143.36;nan
39209;BME280;24929;51.982;4.664;2023-02-19T16:10:38;77992.84;;;-143.36;nan
39209;BME280;24929;51.982;4.664;2023-02-19T16:13:05;77970.78;;;-143.36;nan
39209;BME280;24929;51.982;4.664;2023-02-19T16:15:32;77936.66;;;-143.36;nan
39209;BME280;24929;51.982;4.664;2023-02-19T16:17:59;77966.75;;;-143.36;nan
39209;BME280;24929;51.982;4.664;2023-02-19T16:20:27;78107.28;;;-143.36;nan
39209;BME280;24929;51.982;4.664;2023-02-19T16:23:01;78008.91;;;-143.36;nan
39209;BME280;24929;51.982;4.664;2023-02-19T16:27:57;77948.69;;;-143.36;nan
39209;BME280;24929;51.982;4.664;2023-02-19T16:30:31;77956.72;;;-143.36;nan
39209;BME280;24929;51.982;4.664;2023-02-19T16:35:57;78037.03;;;-143.36;nan
39209;BME280;24929;51.982;4.664;2023-02-19T16:45:42;77958.72;;;-143.36;nan
39209;BME280;24929;51.982;4.664;2023-02-19T16:48:09;78043.03;;;-143.36;nan
39209;BME280;24929;51.982;4.664;2023-02-19T16:50:35;78000.88;;;-143.36;nan